Mayfield Heights, OH (44124)

7:34 AM EST on December 18, 2014 (GMT -0500)
Portage Escarpment | Change Station
CLOSE
Current Station
Personal Weather Station
Location: Cleveland, OH
Elevation: 738 ft
Nearby Weather Stations

Elev 738 ft 41.51 °N, 81.60 °W | Updated 1 second ago

Overcast
Overcast
30.9 °F
Feels Like 25 °F
N
6.0
Wind Variable Wind from WSW
Gusts 7.4 mph

Today
High -- | Low -- °F
--% Chance of Precip.
Yesterday
High -- | Low -- °F
Precip. -- in
7:47 AM 4:58 PM
Waning Crescent, 15% visible
Pressure 30.21 in
Visibility 10.0 miles
Clouds Overcast 2700 ft
Windchill 25 °F
Dew Point 22 °F
Humidity 68%
Rainfall 0.00 in
Snow Depth Not available.
UV 0 out of 12
Pollen .10 out of 12
Air Quality Not available.
Flu Activity Not available.
METAR KBKL 181153Z 27013KT 10SM OVC027 00/M05 A3019 RMK AO2 SLP229 T00001050 10000 21006 53002

More Conditions Fewer Conditions

Pressure 30.21 in
Visibility 10.0 miles
Clouds Overcast 2700 ft
Windchill 25 °F
Dew Point 22 °F
Humidity 68%
Rainfall 0.00 in
Snow Depth Not available.
UV 0 out of 12
Pollen .10 out of 12
Air Quality Not available.
Flu Activity Not available.
METAR KBKL 181153Z 27013KT 10SM OVC027 00/M05 A3019 RMK AO2 SLP229 T00001050 10000 21006 53002

More Conditions Fewer Conditions

10-Day Weather Forecast

Almanac

Astronomy

Dec. 18, 2014 Rise Set
Actual Time
Civil Twilight
Nautical Twilight
Astronomical Twilight
Moon
Length of Visible Light
Length of Day
Tomorrow will be .
, % of the Moon is Illuminated

Today's Extremes

State Highs State Lows

Community

WunderPhotos

Upload Photos

1,778,923 photos uploaded!

WunderBlogs® & News

Nearby

Air Quality

  Air Quality AQ Index Pollutant
Not available.

Snow Depth

Station Depth Elevation

Earthquake Activity

City Distance Mag. Time & Date
Minimum magnitude displayed is 2.5.

Coastal Water Temperatures

Place Temperature

Nearby Weather Stations